Time;durP1;ratioP1;P1;durP2;ratioP2;P2;SDS_P1;SDS_P2;PMS_P1;PMS_P2;Temp;Humidity;BMP_temperature;BMP_pressure;BME280_temperature;BME280_humidity;BME280_pressure;Samples;Min_cycle;Max_cycle;Signal;HPM_P1;HPM_P2
2023/10/10 00:01:42;;;;;;;15.65;10.63;;;;;;;17.56;45.52;101709.13;5029779;28;20041;-76
2023/10/10 00:04:11;;;;;;;15.18;9.63;;;;;;;17.53;45.54;101692.81;5029930;28;20045;-76
2023/10/10 00:06:40;;;;;;;12.52;9.52;;;;;;;17.50;45.51;101688.47;5028636;28;20041;-77
2023/10/10 00:09:10;;;;;;;13.85;9.70;;;;;;;17.48;45.59;101697.97;5028300;28;20401;-77
2023/10/10 00:11:47;;;;;;;14.50;9.85;;;;;;;17.46;45.72;101702.81;5029760;28;20125;-76
2023/10/10 00:14:18;;;;;;;13.68;9.95;;;;;;;17.40;45.93;101698.78;5028718;28;20504;-77
2023/10/10 00:16:48;;;;;;;16.85;10.88;;;;;;;17.36;45.97;101703.75;5030096;28;20417;-77
2023/10/10 00:19:22;;;;;;;14.85;9.35;;;;;;;17.35;46.01;101703.91;5044591;28;20042;-76
2023/10/10 00:21:50;;;;;;;13.75;9.85;;;;;;;17.32;45.48;101706.97;5028040;28;20050;-77
2023/10/10 00:24:20;;;;;;;12.93;9.10;;;;;;;17.31;45.58;101710.78;5029282;28;20124;-77
2023/10/10 00:26:50;;;;;;;12.98;9.23;;;;;;;17.32;46.17;101701.44;5042423;28;20048;-77
2023/10/10 00:29:22;;;;;;;12.85;9.77;;;;;;;17.30;45.91;101700.75;5048225;28;20508;-77
2023/10/10 00:31:55;;;;;;;14.13;9.98;;;;;;;17.27;46.11;101695.53;5052422;28;20103;-77
2023/10/10 00:34:30;;;;;;;13.48;9.73;;;;;;;17.28;46.06;101703.66;5054994;28;20049;-75
2023/10/10 00:37:04;;;;;;;13.85;9.57;;;;;;;17.27;45.95;101698.28;5072090;28;20048;-78
2023/10/10 00:39:35;;;;;;;14.18;9.95;;;;;;;17.26;46.05;101700.19;5053174;28;20168;-78
2023/10/10 00:42:07;;;;;;;16.15;10.82;;;;;;;17.27;46.05;101698.28;5034432;28;20045;-77
2023/10/10 00:44:38;;;;;;;15.50;10.27;;;;;;;17.22;46.14;101693.25;5035444;28;20068;-77
2023/10/10 00:47:21;;;;;;;14.63;10.38;;;;;;;17.24;46.06;101690.28;5035937;28;20554;-77
2023/10/10 00:49:50;;;;;;;12.77;9.35;;;;;;;17.24;46.21;101687.53;5035470;28;20056;-77
2023/10/10 00:52:19;;;;;;;14.63;9.57;;;;;;;17.22;45.87;101687.72;5035381;28;20045;-77
2023/10/10 00:54:49;;;;;;;14.48;10.40;;;;;;;17.23;46.14;101688.56;5035666;28;20045;-77
2023/10/10 00:57:20;;;;;;;16.05;10.38;;;;;;;17.23;45.68;101683.91;5037170;28;20056;-78
2023/10/10 00:59:54;;;;;;;13.52;9.95;;;;;;;17.19;45.98;101688.00;5035413;28;20049;-77
2023/10/10 01:02:22;;;;;;;14.18;10.10;;;;;;;17.18;45.92;101689.03;5035575;28;20057;-76
2023/10/10 01:04:55;;;;;;;15.68;10.30;;;;;;;17.17;45.71;101683.66;5034947;28;20045;-78
2023/10/10 01:07:25;;;;;;;13.98;9.43;;;;;;;17.14;45.84;101678.47;5036999;28;20481;-78
2023/10/10 01:09:57;;;;;;;13.65;10.40;;;;;;;17.15;45.62;101686.59;5036537;28;20471;-77
2023/10/10 01:12:32;;;;;;;14.77;9.77;;;;;;;17.13;45.85;101685.00;5035118;28;20045;-76
2023/10/10 01:15:07;;;;;;;14.45;9.68;;;;;;;17.10;46.16;101683.41;5035120;28;20051;-77
2023/10/10 01:17:37;;;;;;;15.25;9.65;;;;;;;17.09;45.76;101676.16;5051030;28;20052;-77
2023/10/10 01:20:17;;;;;;;14.38;10.23;;;;;;;17.09;45.86;101678.03;5038774;28;20050;-78
2023/10/10 01:22:51;;;;;;;12.25;9.48;;;;;;;17.07;45.99;101672.69;5035227;28;20045;-77
2023/10/10 01:25:42;;;;;;;;;;;;;;;16.75;46.76;101673.16;5035684;28;20575;-77
2023/10/10 01:28:22;;;;;;;12.48;8.38;;;;;;;16.97;46.18;101666.34;5034712;28;20004;-77
2023/10/10 01:31:03;;;;;;;14.85;10.05;;;;;;;16.97;45.94;101664.47;5035586;28;20429;-77
2023/10/10 01:33:47;;;;;;;14.05;9.60;;;;;;;16.97;45.98;101666.34;5035897;28;20051;-77
2023/10/10 01:36:20;;;;;;;14.85;9.88;;;;;;;16.94;45.64;101663.84;5036631;28;20052;-76
2023/10/10 01:39:19;;;;;;;16.08;10.20;;;;;;;16.93;46.14;101663.00;5034877;28;20056;-76
2023/10/10 01:41:49;;;;;;;13.57;9.02;;;;;;;16.89;46.12;101660.72;5034905;28;20046;-77
2023/10/10 01:44:22;;;;;;;13.27;9.55;;;;;;;16.88;46.30;101658.97;5035445;28;20048;-78
2023/10/10 01:46:52;;;;;;;15.15;10.27;;;;;;;16.87;46.15;101662.75;5051417;28;20124;-77
2023/10/10 01:49:21;;;;;;;15.13;10.98;;;;;;;16.85;45.86;101656.50;5035215;28;20045;-77
2023/10/10 01:51:54;;;;;;;14.77;9.77;;;;;;;16.84;46.10;101652.00;5034823;28;20053;-77
2023/10/10 01:54:34;;;;;;;13.27;10.18;;;;;;;16.83;45.88;101655.78;5034716;28;20101;-78
2023/10/10 01:57:07;;;;;;;14.52;9.45;;;;;;;16.79;46.24;101646.94;5034888;28;20045;-77
2023/10/10 01:59:38;;;;;;;13.35;9.02;;;;;;;16.78;45.99;101647.97;5034547;28;20092;-78
2023/10/10 02:02:10;;;;;;;15.93;10.70;;;;;;;16.77;46.06;101653.66;5035145;28;20045;-77
2023/10/10 02:04:39;;;;;;;14.32;10.75;;;;;;;16.71;46.31;101645.97;5034169;28;20109;-77
2023/10/10 02:07:14;;;;;;;15.23;10.65;;;;;;;16.71;46.19;101640.47;5035222;28;20065;-77
2023/10/10 02:09:53;;;;;;;15.05;11.45;;;;;;;16.70;46.46;101644.25;5034242;28;20453;-78
2023/10/10 02:12:22;;;;;;;14.57;10.02;;;;;;;16.64;46.54;101643.84;5035448;28;20045;-76
2023/10/10 02:14:50;;;;;;;15.07;10.77;;;;;;;16.63;46.28;101644.88;5033934;28;20527;-78
2023/10/10 02:17:22;;;;;;;13.40;10.20;;;;;;;16.62;46.24;101642.25;5034287;28;20050;-77
2023/10/10 02:19:58;;;;;;;13.38;10.00;;;;;;;16.57;46.46;101644.63;5035126;28;20049;-77
2023/10/10 02:22:36;;;;;;;14.23;10.15;;;;;;;16.57;46.20;101636.34;5033850;28;20530;-76
2023/10/10 02:28:02;;;;;;;16.13;9.98;;;;;;;16.49;46.67;101625.19;5013673;28;20045;-74
2023/10/10 02:30:36;;;;;;;16.63;10.10;;;;;;;16.49;46.43;101627.94;5033507;28;20444;-77
2023/10/10 02:33:14;;;;;;;12.52;9.32;;;;;;;16.48;46.11;101627.06;5033400;28;20046;-77
2023/10/10 02:38:37;;;;;;;15.90;9.60;;;;;;;16.43;46.26;101621.13;5028299;28;20049;-78
2023/10/10 02:41:23;;;;;;;12.88;9.77;;;;;;;16.44;46.38;101620.09;5033296;28;20080;-77
2023/10/10 02:44:04;;;;;;;12.07;9.18;;;;;;;16.41;46.25;101614.91;5031800;28;20037;-76
2023/10/10 02:46:37;;;;;;;12.90;9.05;;;;;;;16.40;46.77;101615.06;5028810;28;20046;-77
2023/10/10 02:49:22;;;;;;;12.57;8.98;;;;;;;16.37;46.56;101607.94;5030654;28;20318;-77
2023/10/10 02:51:55;;;;;;;14.00;9.55;;;;;;;16.35;46.56;101603.56;5028997;28;20046;-77
2023/10/10 02:54:33;;;;;;;12.90;8.93;;;;;;;16.33;46.44;101613.94;5028607;28;20041;-74
2023/10/10 02:59:52;;;;;;;12.15;8.43;;;;;;;16.28;46.53;101617.16;5029063;28;20586;-76
2023/10/10 03:02:23;;;;;;;13.27;9.23;;;;;;;16.27;46.46;101613.50;5034796;28;20041;-77
2023/10/10 03:05:06;;;;;;;14.43;9.82;;;;;;;16.24;46.67;101618.50;5048340;28;20271;-76
2023/10/10 03:07:35;;;;;;;12.75;8.50;;;;;;;16.20;46.70;101617.03;5048835;28;20063;-77
2023/10/10 03:10:37;;;;;;;12.05;8.85;;;;;;;16.21;46.44;101619.66;5048830;28;20407;-77
2023/10/10 03:13:27;;;;;;;12.50;8.65;;;;;;;16.17;46.72;101614.56;5048123;28;20091;-75
2023/10/10 03:16:12;;;;;;;12.25;8.25;;;;;;;16.13;46.61;101615.88;5048169;28;20049;-77
2023/10/10 03:18:53;;;;;;;;;;;;;;;15.83;47.74;101619.78;5048728;28;20059;-76
2023/10/10 03:21:42;;;;;;;11.48;7.50;;;;;;;16.05;46.52;101621.28;5048359;28;19921;-75
2023/10/10 03:24:15;;;;;;;12.02;7.88;;;;;;;16.05;46.69;101619.41;5048246;28;20057;-76
2023/10/10 03:27:11;;;;;;;12.32;8.57;;;;;;;16.04;46.53;101609.38;5049432;28;20088;-77
2023/10/10 03:29:47;;;;;;;13.43;7.97;;;;;;;16.04;47.05;101617.66;5048366;28;20479;-76
2023/10/10 03:32:26;;;;;;;11.55;8.10;;;;;;;16.02;46.74;101607.78;5050141;28;20295;-76
2023/10/10 03:34:56;;;;;;;13.20;8.30;;;;;;;16.00;46.54;101613.44;5048157;28;20076;-74
2023/10/10 03:37:40;;;;;;;11.35;7.90;;;;;;;15.99;46.98;101620.03;5047993;28;20531;-77
2023/10/10 05:25:43;;;;;;;9.25;5.93;;;;;;;15.94;46.71;101588.34;5050431;28;20512;-75
2023/10/10 05:28:11;;;;;;;8.80;6.53;;;;;;;15.92;46.65;101582.97;5050086;28;20041;-76
2023/10/10 05:30:44;;;;;;;9.68;5.93;;;;;;;15.93;46.73;101584.72;5050118;28;20088;-76
2023/10/10 05:33:12;;;;;;;;;;;;;;;15.64;47.39;101587.59;5051512;28;20515;-74
2023/10/10 05:35:43;;;;;;;7.68;4.93;;;;;;;15.89;46.55;101586.06;5051188;28;19921;-77
2023/10/10 05:38:11;;;;;;;9.43;5.70;;;;;;;15.91;46.17;101578.50;5052274;28;20047;-77
2023/10/10 05:40:39;;;;;;;10.73;6.47;;;;;;;15.91;46.71;101577.63;5036182;28;20528;-76
2023/10/10 05:43:09;;;;;;;10.48;6.00;;;;;;;15.93;46.31;101578.31;5029896;28;20140;-77
2023/10/10 05:45:37;;;;;;;9.70;6.45;;;;;;;15.90;46.25;101582.28;5029609;28;20380;-77
2023/10/10 05:48:06;;;;;;;8.45;5.68;;;;;;;15.88;46.40;101582.41;5030997;28;20041;-76
2023/10/10 05:50:34;;;;;;;10.20;6.05;;;;;;;15.88;46.38;101587.06;5046690;28;20050;-75
2023/10/10 05:53:03;;;;;;;9.63;5.95;;;;;;;15.87;46.51;101585.31;5030032;28;20041;-77
2023/10/10 05:55:33;;;;;;;9.25;6.18;;;;;;;15.83;46.09;101579.25;5029369;28;20049;-75
2023/10/10 05:58:02;;;;;;;8.70;6.03;;;;;;;15.83;46.73;101584.78;5045943;28;20049;-75
2023/10/10 06:00:36;;;;;;;9.95;6.68;;;;;;;15.85;46.47;101584.59;5029556;28;20057;-76
2023/10/10 06:03:06;;;;;;;9.73;6.18;;;;;;;15.82;46.79;101580.28;5031026;28;20175;-76
2023/10/10 06:05:34;;;;;;;9.15;6.10;;;;;;;15.82;46.83;101577.50;5029444;28;20513;-77
2023/10/10 06:08:05;;;;;;;9.30;6.20;;;;;;;15.83;46.62;101575.63;5032895;28;20087;-76
2023/10/10 06:10:34;;;;;;;9.13;5.88;;;;;;;15.83;46.81;101578.38;5049385;28;20045;-76
2023/10/10 06:13:03;;;;;;;8.80;5.65;;;;;;;15.83;46.90;101581.16;5050306;28;20033;-76
2023/10/10 06:15:34;;;;;;;9.38;5.80;;;;;;;15.84;46.64;101583.72;5049209;28;20511;-76
2023/10/10 06:18:11;;;;;;;9.50;6.07;;;;;;;15.83;46.48;101586.66;5047061;28;20099;-77
2023/10/10 06:20:43;;;;;;;9.55;5.60;;;;;;;15.82;46.88;101577.50;5048662;28;20439;-76
2023/10/10 06:23:32;;;;;;;10.15;5.95;;;;;;;15.80;46.45;101575.91;5042625;28;20107;-67
2023/10/10 06:26:01;;;;;;;10.68;6.15;;;;;;;15.82;46.96;101577.50;5020732;28;21094;-68
2023/10/10 06:28:35;;;;;;;10.93;6.28;;;;;;;15.82;46.46;101583.03;5020990;28;20079;-69
2023/10/10 06:31:09;;;;;;;9.50;6.43;;;;;;;15.84;46.73;101577.34;5025456;28;20049;-72
2023/10/10 06:33:40;;;;;;;10.05;6.18;;;;;;;15.83;46.90;101583.91;5024897;28;20053;-73
2023/10/10 06:41:43;;;;;;;8.65;5.47;;;;;;;15.80;46.61;101565.75;5020171;28;20163;-73
2023/10/10 06:44:13;;;;;;;11.10;6.88;;;;;;;15.79;46.86;101569.53;5021079;28;20133;-72
2023/10/10 06:46:48;;;;;;;9.30;6.05;;;;;;;15.80;46.85;101564.88;5019040;28;20057;-71
2023/10/10 06:49:16;;;;;;;10.43;7.43;;;;;;;15.78;46.74;101558.63;5024009;28;20592;-73
2023/10/10 06:51:45;;;;;;;11.43;6.75;;;;;;;15.79;46.98;101558.50;5022763;28;20103;-73
2023/10/10 06:54:19;;;;;;;11.38;6.93;;;;;;;15.80;46.78;101565.75;5025107;28;20060;-71
2023/10/10 06:57:04;;;;;;;13.02;7.28;;;;;;;15.79;47.06;101563.13;5019490;28;20492;-71
2023/10/10 06:59:35;;;;;;;11.40;6.72;;;;;;;15.79;47.28;101568.66;5022280;28;20152;-71
2023/10/10 07:02:13;;;;;;;12.75;6.57;;;;;;;15.80;47.00;101556.59;5020882;28;20049;-74
2023/10/10 07:04:42;;;;;;;10.90;6.55;;;;;;;15.79;47.12;101571.41;5021494;28;20045;-74
2023/10/10 07:07:11;;;;;;;11.30;6.95;;;;;;;15.79;47.08;101574.19;5018288;28;20168;-71
2023/10/10 07:09:42;;;;;;;9.88;6.57;;;;;;;15.79;47.04;101574.19;5025510;28;20662;-72
2023/10/10 07:12:10;;;;;;;10.38;6.85;;;;;;;15.80;46.91;101576.78;5021744;28;20131;-72
2023/10/10 07:14:40;;;;;;;11.35;7.13;;;;;;;15.81;47.11;101575.78;5020481;28;20042;-71
2023/10/10 07:17:11;;;;;;;12.60;7.55;;;;;;;15.85;47.30;101579.94;5021000;28;20497;-72
2023/10/10 07:22:36;;;;;;;14.15;7.85;;;;;;;15.86;47.72;101564.25;5031189;27;20425;-73
2023/10/10 07:25:07;;;;;;;11.93;7.20;;;;;;;15.87;47.51;101566.00;5023979;28;20045;-74
2023/10/10 07:27:39;;;;;;;11.23;6.80;;;;;;;15.87;47.16;101561.34;5017949;28;20099;-72
2023/10/10 07:30:16;;;;;;;11.60;6.60;;;;;;;15.92;47.24;101571.09;5019930;28;20053;-70
2023/10/10 07:32:44;;;;;;;11.48;7.18;;;;;;;15.94;47.56;101574.53;5020743;28;20830;-71
2023/10/10 07:35:15;;;;;;;11.70;7.15;;;;;;;15.96;47.38;101561.47;5023864;28;20056;-73
2023/10/10 07:37:46;;;;;;;10.48;6.47;;;;;;;16.01;47.59;101576.53;5021487;28;20061;-71
2023/10/10 07:40:22;;;;;;;10.35;6.80;;;;;;;16.03;47.90;101565.34;5028307;28;20103;-71
2023/10/10 07:42:50;;;;;;;10.80;6.72;;;;;;;16.05;47.61;101566.94;5030153;28;20059;-71
2023/10/10 07:45:27;;;;;;;9.50;6.85;;;;;;;16.10;47.72;101566.47;5030100;28;20135;-72
2023/10/10 07:50:56;;;;;;;10.73;6.45;;;;;;;16.15;47.36;101562.25;5031832;28;20397;-71
2023/10/10 07:53:34;;;;;;;11.80;6.53;;;;;;;16.21;47.59;101563.53;5031485;28;20064;-72
2023/10/10 07:56:02;;;;;;;10.38;6.40;;;;;;;16.22;47.44;101571.69;5040967;28;20110;-69
2023/10/10 07:58:42;;;;;;;9.70;6.55;;;;;;;16.27;47.50;101573.97;5037524;28;20077;-70
2023/10/10 08:01:21;;;;;;;9.77;6.47;;;;;;;16.30;47.87;101573.66;5040716;28;20836;-71
2023/10/10 08:03:49;;;;;;;9.55;6.25;;;;;;;16.34;47.78;101571.44;5041854;28;20353;-71
2023/10/10 08:06:21;;;;;;;13.25;7.40;;;;;;;16.37;47.41;101566.50;5036401;28;20130;-72
2023/10/10 08:09:11;;;;;;;9.88;6.65;;;;;;;16.39;47.51;101567.22;5040058;28;20048;-71
2023/10/10 08:11:39;;;;;;;9.80;6.20;;;;;;;16.41;47.11;101565.19;5039979;28;20061;-73
2023/10/10 08:14:09;;;;;;;12.13;6.75;;;;;;;16.46;47.19;101557.28;5041693;28;20056;-72
2023/10/10 08:16:39;;;;;;;10.82;6.63;;;;;;;16.50;47.09;101555.06;5040632;28;20135;-71
2023/10/10 08:19:09;;;;;;;8.98;6.07;;;;;;;16.53;47.25;101550.09;5040184;28;20041;-73
2023/10/10 08:21:48;;;;;;;9.77;6.20;;;;;;;16.57;47.26;101548.78;5037320;28;20041;-73
2023/10/10 08:24:19;;;;;;;10.40;6.03;;;;;;;16.61;47.09;101554.84;5042401;28;20052;-70
2023/10/10 08:26:51;;;;;;;9.75;6.40;;;;;;;16.64;47.29;101551.78;5040839;28;20102;-70
2023/10/10 08:29:25;;;;;;;10.43;6.15;;;;;;;16.67;47.59;101556.97;5041945;28;21475;-70
2023/10/10 08:31:54;;;;;;;9.52;6.10;;;;;;;16.71;47.50;101558.41;5037631;28;20048;-72
2023/10/10 08:34:21;;;;;;;9.65;5.35;;;;;;;16.77;47.39;101560.53;5028135;28;20115;-73
2023/10/10 08:37:02;;;;;;;9.02;5.60;;;;;;;16.82;47.80;101555.41;5026594;28;20564;-71
2023/10/10 08:39:35;;;;;;;9.27;5.80;;;;;;;16.90;47.44;101557.38;5026126;28;20106;-71
2023/10/10 08:42:10;;;;;;;10.07;5.75;;;;;;;16.97;47.22;101550.22;5027511;28;20408;-70
2023/10/10 08:44:40;;;;;;;9.43;5.68;;;;;;;17.04;47.14;101548.53;5025943;28;20509;-71
2023/10/10 08:47:15;;;;;;;9.55;5.90;;;;;;;17.13;47.16;101538.41;5023603;28;20099;-71
2023/10/10 08:49:47;;;;;;;9.05;5.47;;;;;;;17.21;47.26;101536.59;5025787;28;20107;-71
2023/10/10 08:52:17;;;;;;;10.25;5.80;;;;;;;17.27;47.14;101540.59;5026145;28;20045;-70
2023/10/10 08:54:47;;;;;;;7.50;5.15;;;;;;;17.35;47.18;101538.75;5028657;28;20447;-70
2023/10/10 08:57:25;;;;;;;9.82;5.55;;;;;;;17.42;47.08;101541.75;5024994;28;20046;-71
2023/10/10 08:59:53;;;;;;;9.95;5.85;;;;;;;17.48;46.89;101532.81;5033685;23;20045;-70
2023/10/10 09:02:21;;;;;;;8.82;5.25;;;;;;;17.54;46.95;101534.91;5041021;28;20463;-70
2023/10/10 09:04:50;;;;;;;10.15;5.78;;;;;;;17.61;46.74;101535.13;5040893;28;20049;-69
2023/10/10 09:07:21;;;;;;;9.38;5.22;;;;;;;17.67;46.71;101540.84;5022010;28;20198;-71
2023/10/10 09:10:04;;;;;;;8.32;5.25;;;;;;;17.76;45.86;101534.38;5022944;28;20673;-70
2023/10/10 09:12:33;;;;;;;10.90;5.70;;;;;;;17.81;46.63;101538.56;5023067;28;20060;-70
2023/10/10 09:15:16;;;;;;;8.00;5.07;;;;;;;17.90;46.29;101543.94;5022401;28;20167;-70
2023/10/10 09:17:45;;;;;;;7.40;5.15;;;;;;;17.95;46.87;101547.09;5022818;28;20057;-70
2023/10/10 09:20:27;;;;;;;7.65;4.90;;;;;;;18.07;46.07;101539.34;5023251;28;20045;-70
2023/10/10 09:23:02;;;;;;;7.40;5.10;;;;;;;18.10;46.48;101544.56;5021198;28;20092;-70
2023/10/10 09:25:42;;;;;;;10.80;5.38;;;;;;;18.23;46.34;101542.19;5022655;28;20103;-70
2023/10/10 09:28:15;;;;;;;7.72;4.97;;;;;;;18.29;46.19;101540.66;5020744;28;20045;-70
2023/10/10 09:30:49;;;;;;;7.63;4.57;;;;;;;18.40;45.37;101543.97;5022081;28;20118;-70
2023/10/10 09:33:27;;;;;;;6.35;4.53;;;;;;;18.46;45.79;101553.53;5022128;28;20325;-70
2023/10/10 09:36:08;;;;;;;7.88;4.90;;;;;;;18.53;45.32;101551.84;5021710;28;20095;-69
2023/10/10 09:38:45;;;;;;;8.18;4.47;;;;;;;18.58;45.61;101552.19;5021933;28;20049;-70
2023/10/10 09:41:27;;;;;;;7.80;4.45;;;;;;;18.67;45.18;101542.84;5022991;28;20135;-70
2023/10/10 09:47:13;;;;;;;8.32;4.80;;;;;;;18.81;44.81;101546.84;5021548;28;20057;-70
2023/10/10 09:49:44;;;;;;;7.40;4.45;;;;;;;18.86;44.86;101542.53;5021487;28;20058;-70
2023/10/10 09:55:07;;;;;;;7.15;4.40;;;;;;;18.98;44.65;101536.63;5022126;28;20932;-70
2023/10/10 09:57:39;;;;;;;9.23;4.80;;;;;;;19.05;44.35;101537.69;5020428;28;20049;-71
2023/10/10 10:00:11;;;;;;;6.50;4.22;;;;;;;19.08;44.80;101535.41;5036611;28;20053;-70
2023/10/10 10:02:59;;;;;;;7.35;4.35;;;;;;;19.15;44.72;101539.22;5021807;28;20049;-71
2023/10/10 10:05:30;;;;;;;8.10;4.60;;;;;;;19.21;44.63;101535.78;5021116;28;20559;-70
2023/10/10 10:08:07;;;;;;;8.52;5.20;;;;;;;19.29;43.98;101539.63;5020623;28;20088;-70
2023/10/10 10:10:49;;;;;;;7.53;4.68;;;;;;;19.35;43.56;101539.78;5021889;28;20053;-70
2023/10/10 10:13:37;;;;;;;8.05;4.10;;;;;;;19.41;43.40;101539.06;5019840;28;20045;-70
2023/10/10 10:16:25;;;;;;;7.20;4.50;;;;;;;19.46;43.02;101533.00;5036672;28;20037;-70
2023/10/10 10:19:10;;;;;;;7.63;4.50;;;;;;;19.51;43.68;101534.19;5022226;28;20064;-71
2023/10/10 10:21:52;;;;;;;8.95;4.70;;;;;;;19.57;43.78;101527.94;5021735;28;20136;-71
2023/10/10 10:24:30;;;;;;;7.40;4.25;;;;;;;19.64;43.77;101523.38;5021778;28;20053;-71
2023/10/10 10:27:24;;;;;;;7.93;4.40;;;;;;;19.74;42.82;101525.09;5020747;28;20065;-70
2023/10/10 10:30:07;;;;;;;6.45;4.10;;;;;;;19.80;43.21;101518.81;5020812;28;20045;-70
2023/10/10 10:32:35;;;;;;;9.05;4.20;;;;;;;19.85;43.41;101522.81;5020669;28;20120;-70
2023/10/10 10:35:08;;;;;;;9.02;4.03;;;;;;;19.91;43.52;101524.91;5020818;28;20050;-70
2023/10/10 10:37:39;;;;;;;6.32;4.20;;;;;;;19.99;43.52;101521.22;5020573;28;20530;-70
2023/10/10 10:43:03;;;;;;;6.90;3.80;;;;;;;20.15;42.50;101523.91;5016325;28;20049;-69
2023/10/10 10:45:38;;;;;;;7.07;4.03;;;;;;;20.22;42.65;101508.25;5019896;28;20057;-71
2023/10/10 10:48:08;;;;;;;6.25;3.90;;;;;;;20.29;42.63;101506.47;5020000;28;20045;-70
2023/10/10 10:50:45;;;;;;;5.68;3.95;;;;;;;20.37;42.65;101509.19;5018899;28;20064;-71
2023/10/10 10:56:37;;;;;;;6.60;4.13;;;;;;;20.53;42.35;101504.59;5012668;28;20084;-70
2023/10/10 10:59:12;;;;;;;6.65;3.97;;;;;;;20.65;41.42;101498.44;5017395;28;20535;-71
2023/10/10 11:01:45;;;;;;;6.80;4.03;;;;;;;20.74;41.63;101499.25;5018310;28;20033;-71
2023/10/10 11:04:26;;;;;;;7.63;4.40;;;;;;;20.80;41.94;101506.84;5019712;28;20524;-71
2023/10/10 11:06:59;;;;;;;6.28;3.80;;;;;;;20.88;41.90;101498.44;5035027;28;20164;-70
2023/10/10 11:09:30;;;;;;;8.73;4.35;;;;;;;20.97;41.38;101500.09;5020174;28;20054;-69
2023/10/10 11:12:02;;;;;;;6.68;4.20;;;;;;;21.04;41.47;101492.72;5017939;28;20049;-71
2023/10/10 11:14:44;;;;;;;7.40;3.90;;;;;;;21.11;41.24;101496.47;5025550;28;20049;-71
2023/10/10 11:17:18;;;;;;;6.20;3.80;;;;;;;21.22;40.65;101494.31;5020182;28;20049;-70
2023/10/10 11:19:53;;;;;;;6.30;3.92;;;;;;;21.27;40.94;101486.31;5018761;28;20109;-71
2023/10/10 11:25:05;;;;;;;8.48;4.35;;;;;;;21.40;40.82;101480.94;5019541;28;20133;-71
2023/10/10 11:27:43;;;;;;;6.65;3.63;;;;;;;21.47;40.76;101479.97;5018827;28;20053;-71
2023/10/10 11:30:19;;;;;;;6.50;4.05;;;;;;;21.55;40.56;101479.00;5019287;28;20079;-71
2023/10/10 11:32:49;;;;;;;6.63;3.92;;;;;;;21.63;40.31;101476.13;5019449;28;20041;-71
2023/10/10 11:35:26;;;;;;;6.80;3.78;;;;;;;21.70;39.47;101471.50;5020041;28;20111;-71
2023/10/10 11:38:06;;;;;;;6.57;3.92;;;;;;;21.75;40.51;101462.59;5018206;28;20516;-71
2023/10/10 11:40:34;;;;;;;4.97;3.47;;;;;;;21.81;40.23;101459.88;5019311;28;20058;-70
2023/10/10 11:43:04;;;;;;;6.97;3.30;;;;;;;21.89;39.60;101467.28;5017805;28;20068;-71
2023/10/10 11:45:39;;;;;;;6.38;4.05;;;;;;;21.95;39.53;101469.31;5017660;28;20046;-71
2023/10/10 11:48:14;;;;;;;5.80;3.53;;;;;;;22.03;39.23;101457.19;5019456;28;20136;-71
2023/10/10 11:50:46;;;;;;;6.75;3.88;;;;;;;22.08;39.12;101455.56;5018401;28;20044;-70
2023/10/10 11:53:19;;;;;;;6.82;4.32;;;;;;;22.14;38.96;101454.78;5019345;28;20049;-71
2023/10/10 11:55:47;;;;;;;7.07;3.85;;;;;;;22.18;39.03;101444.94;5026563;28;20049;-70
2023/10/10 11:58:17;;;;;;;6.78;3.58;;;;;;;22.24;38.83;101446.09;5017337;28;20660;-71
2023/10/10 12:00:46;;;;;;;6.70;3.95;;;;;;;22.31;38.49;101440.59;5017115;28;20081;-70
2023/10/10 12:03:32;;;;;;;7.22;3.70;;;;;;;22.38;38.22;101445.16;5017345;28;20092;-71
2023/10/10 12:06:00;;;;;;;5.75;3.30;;;;;;;22.40;38.33;101434.69;5033384;28;20449;-71
2023/10/10 12:08:28;;;;;;;6.07;3.45;;;;;;;22.46;38.12;101436.69;5021352;28;20416;-70
2023/10/10 12:11:06;;;;;;;6.57;4.10;;;;;;;22.50;37.95;101438.03;5022282;28;20045;-71
2023/10/10 12:13:34;;;;;;;6.43;2.97;;;;;;;22.55;37.57;101435.50;5022632;28;20056;-70
2023/10/10 12:16:07;;;;;;;6.32;3.35;;;;;;;22.63;37.53;101435.38;5022455;28;20492;-70
2023/10/10 12:18:43;;;;;;;5.20;2.85;;;;;;;22.69;37.48;101433.69;5022511;28;20049;-71
2023/10/10 12:21:14;;;;;;;6.18;3.30;;;;;;;22.73;36.75;101428.59;5023090;28;20046;-71
2023/10/10 12:23:42;;;;;;;6.78;3.58;;;;;;;22.77;36.59;101424.31;5022355;28;20054;-70
2023/10/10 12:26:11;;;;;;;5.75;3.33;;;;;;;22.80;36.37;101419.22;5022005;28;20049;-71
2023/10/10 12:28:39;;;;;;;6.22;3.33;;;;;;;22.85;36.18;101426.97;5021086;28;20627;-70
2023/10/10 12:31:15;;;;;;;6.60;3.38;;;;;;;22.86;35.82;101424.00;5021907;28;20061;-71
2023/10/10 12:33:48;;;;;;;5.68;2.83;;;;;;;22.93;35.59;101429.63;5021027;28;20049;-70
2023/10/10 12:36:16;;;;;;;5.90;3.10;;;;;;;22.94;35.57;101423.84;5036614;28;20049;-70
2023/10/10 12:38:48;;;;;;;7.60;3.35;;;;;;;22.98;35.41;101414.00;5021785;28;20664;-71
2023/10/10 12:41:20;;;;;;;5.68;3.13;;;;;;;22.99;35.35;101417.66;5021073;28;20151;-71
2023/10/10 12:43:50;;;;;;;6.45;3.13;;;;;;;23.04;35.14;101417.91;5022133;28;20147;-71
2023/10/10 12:46:20;;;;;;;6.05;3.42;;;;;;;23.07;35.12;101409.13;5020912;28;20515;-70
2023/10/10 12:48:51;;;;;;;5.90;3.15;;;;;;;23.11;34.94;101404.84;5020858;28;20060;-71
2023/10/10 12:51:22;;;;;;;7.13;2.95;;;;;;;23.13;35.21;101402.72;5021266;28;20048;-71
2023/10/10 12:53:59;;;;;;;6.43;2.90;;;;;;;23.18;34.84;101399.34;5021268;28;20056;-71
2023/10/10 12:56:28;;;;;;;5.28;2.80;;;;;;;23.20;34.37;101397.22;5021212;28;20045;-71
2023/10/10 12:59:00;;;;;;;5.22;3.00;;;;;;;23.24;34.49;101392.97;5020411;28;20144;-71
2023/10/10 13:01:48;;;;;;;5.72;3.20;;;;;;;23.23;34.38;101389.31;5019890;28;20189;-71
2023/10/10 13:04:19;;;;;;;4.90;2.90;;;;;;;23.31;33.97;101385.47;5020413;28;20037;-72
2023/10/10 13:06:51;;;;;;;5.95;3.53;;;;;;;23.32;33.92;101384.41;5021970;28;20049;-71
2023/10/10 13:09:19;;;;;;;5.82;3.40;;;;;;;23.33;33.73;101386.97;5022262;28;20132;-71
2023/10/10 13:11:48;;;;;;;5.00;3.00;;;;;;;23.36;33.72;101388.50;5020416;28;20049;-71
2023/10/10 13:14:19;;;;;;;5.38;2.92;;;;;;;23.38;33.62;101392.84;5020495;28;20052;-71
2023/10/10 13:16:53;;;;;;;5.88;2.90;;;;;;;23.39;33.29;101380.59;5022038;28;20133;-71
2023/10/10 13:19:23;;;;;;;5.97;2.90;;;;;;;23.44;33.23;101382.75;5020531;28;20049;-71
2023/10/10 13:21:52;;;;;;;6.28;2.95;;;;;;;23.44;33.23;101373.50;5021028;28;20081;-71
2023/10/10 13:24:20;;;;;;;5.38;2.85;;;;;;;23.45;32.96;101376.09;5021891;28;20049;-71
2023/10/10 13:26:49;;;;;;;8.07;3.20;;;;;;;23.47;32.79;101379.56;5020674;28;20591;-71
2023/10/10 13:29:18;;;;;;;5.50;3.03;;;;;;;23.48;32.58;101375.69;5021969;28;20077;-71
2023/10/10 13:31:46;;;;;;;6.30;3.30;;;;;;;23.51;32.58;101371.59;5021124;28;20383;-72
2023/10/10 13:34:16;;;;;;;6.00;3.13;;;;;;;23.52;32.40;101367.75;5020478;28;20073;-71
2023/10/10 13:36:46;;;;;;;5.78;2.88;;;;;;;23.54;32.37;101365.63;5019055;28;20064;-71
2023/10/10 13:39:16;;;;;;;5.93;3.15;;;;;;;23.53;32.26;101363.88;5020029;28;20137;-71
2023/10/10 13:41:44;;;;;;;7.38;3.33;;;;;;;23.53;32.13;101361.97;5021195;28;20107;-71
2023/10/10 13:44:12;;;;;;;6.20;3.03;;;;;;;23.53;31.95;101363.88;5020627;28;20133;-71
2023/10/10 13:46:40;;;;;;;7.25;3.15;;;;;;;23.53;31.87;101361.09;5020015;28;20057;-71
2023/10/10 13:49:08;;;;;;;4.55;2.67;;;;;;;23.52;32.20;101360.22;5019252;28;20056;-70
2023/10/10 13:51:39;;;;;;;5.82;2.70;;;;;;;23.53;32.00;101367.53;5019123;28;20053;-71
2023/10/10 13:54:09;;;;;;;5.22;3.13;;;;;;;23.55;31.47;101373.78;5020438;28;20041;-71
2023/10/10 13:56:37;;;;;;;5.57;3.22;;;;;;;23.53;31.53;101361.97;5020276;28;20049;-71
2023/10/10 13:59:05;;;;;;;6.15;3.05;;;;;;;23.53;31.32;101364.75;5020504;28;20053;-70
2023/10/10 14:01:39;;;;;;;5.75;3.22;;;;;;;23.53;31.09;101358.31;5021111;28;20556;-70
2023/10/10 14:04:15;;;;;;;6.13;2.97;;;;;;;23.53;31.17;101363.88;5020827;28;20945;-70
2023/10/10 14:06:47;;;;;;;5.85;3.00;;;;;;;23.51;31.12;101355.72;5021163;28;20065;-71
2023/10/10 14:09:22;;;;;;;6.20;3.25;;;;;;;23.52;30.94;101363.03;5020519;28;20050;-70
2023/10/10 14:11:51;;;;;;;6.25;3.17;;;;;;;23.52;30.88;101363.03;5020516;28;20076;-70